createdAt,value
2019-02-21T00:00:58.720Z,19.07
2019-02-21T00:02:06.700Z,19.08
2019-02-21T00:03:10.487Z,19.05
2019-02-21T00:04:14.138Z,19.05
2019-02-21T00:05:17.614Z,19.06
2019-02-21T00:06:21.118Z,19.04
2019-02-21T00:07:24.667Z,19.05
2019-02-21T00:08:28.173Z,19.04
2019-02-21T00:09:31.692Z,19.05
2019-02-21T00:10:35.178Z,19.04
2019-02-21T00:11:38.699Z,19.03
2019-02-21T00:12:42.464Z,19.04
2019-02-21T00:13:46.046Z,19.04
2019-02-21T00:14:49.626Z,19.04
2019-02-21T00:15:53.203Z,19.02
2019-02-21T00:16:57.234Z,19.02
2019-02-21T00:18:00.749Z,19.02
2019-02-21T00:19:04.332Z,19.02
2019-02-21T00:20:07.989Z,19.02
2019-02-21T00:21:11.584Z,19.01
2019-02-21T00:22:15.162Z,19.00
2019-02-21T00:23:18.729Z,19.00
2019-02-21T00:24:22.253Z,19.00
2019-02-21T00:25:25.734Z,19.00
2019-02-21T00:26:29.244Z,19.00
2019-02-21T00:27:32.804Z,18.99
2019-02-21T00:28:36.380Z,19.00
2019-02-21T00:29:39.899Z,18.99
2019-02-21T00:30:43.382Z,18.99
2019-02-21T00:31:46.899Z,18.99
2019-02-21T00:32:50.405Z,18.99
2019-02-21T00:33:53.875Z,18.98
2019-02-21T00:34:57.487Z,18.99
2019-02-21T00:36:01.002Z,18.98
2019-02-21T00:37:04.605Z,18.97
2019-02-21T00:38:08.186Z,18.97
2019-02-21T00:39:11.694Z,18.96
2019-02-21T00:40:15.235Z,18.96
2019-02-21T00:41:18.725Z,18.94
2019-02-21T00:42:22.272Z,18.96
2019-02-21T00:43:25.960Z,18.95
2019-02-21T00:44:29.444Z,18.95
2019-02-21T00:45:33.051Z,18.93
2019-02-21T00:46:36.544Z,18.96
2019-02-21T00:47:40.042Z,18.95
2019-02-21T00:48:43.574Z,18.95
2019-02-21T00:49:47.062Z,18.94
2019-02-21T00:50:50.567Z,18.95
2019-02-21T00:51:54.142Z,18.95
2019-02-21T00:52:57.630Z,18.95
2019-02-21T00:54:01.193Z,18.95
2019-02-21T00:55:06.447Z,18.95
2019-02-21T00:56:09.978Z,18.96
2019-02-21T00:57:13.496Z,18.97
2019-02-21T00:58:17.004Z,18.96
2019-02-21T00:59:20.489Z,18.96
2019-02-21T01:00:24.052Z,18.97
2019-02-21T01:01:27.668Z,18.94
2019-02-21T01:02:31.254Z,18.96
2019-02-21T01:03:34.842Z,18.96
2019-02-21T01:04:38.414Z,18.96
2019-02-21T01:05:41.910Z,18.95
2019-02-21T01:06:45.437Z,18.95
2019-02-21T01:07:49.001Z,18.95
2019-02-21T01:08:52.562Z,18.94
2019-02-21T01:09:56.066Z,18.94
2019-02-21T01:10:59.628Z,18.94
2019-02-21T01:12:03.143Z,18.94
2019-02-21T01:13:06.810Z,18.93
2019-02-21T01:14:10.341Z,18.93
2019-02-21T01:15:13.881Z,18.94
2019-02-21T01:16:17.411Z,18.94
2019-02-21T01:17:20.932Z,18.92
2019-02-21T01:18:24.421Z,18.92
2019-02-21T01:19:27.991Z,18.92
2019-02-21T01:20:31.481Z,18.91
2019-02-21T01:21:34.974Z,18.89
2019-02-21T01:22:38.587Z,18.89
2019-02-21T01:23:42.080Z,18.89
2019-02-21T01:24:45.573Z,18.89
2019-02-21T01:25:49.143Z,18.89
2019-02-21T01:26:52.639Z,18.88
2019-02-21T01:27:56.161Z,18.87
2019-02-21T01:28:59.656Z,18.87
2019-02-21T01:30:03.217Z,18.87
2019-02-21T01:31:06.713Z,18.86
2019-02-21T01:32:10.205Z,18.87
2019-02-21T01:33:13.792Z,18.85
2019-02-21T01:34:17.375Z,18.85
2019-02-21T01:35:20.856Z,18.84
2019-02-21T01:36:24.439Z,18.84
2019-02-21T01:37:28.002Z,18.85
2019-02-21T01:38:31.529Z,18.84
2019-02-21T01:39:35.038Z,18.83
2019-02-21T01:40:38.537Z,18.83
2019-02-21T01:41:42.098Z,18.82
2019-02-21T01:42:45.691Z,18.83
2019-02-21T01:43:49.218Z,18.83
2019-02-21T01:44:52.773Z,18.82
2019-02-21T01:45:56.337Z,18.83
2019-02-21T01:46:59.841Z,18.82
2019-02-21T01:48:03.406Z,18.81
2019-02-21T01:49:06.919Z,18.80
2019-02-21T01:50:10.762Z,18.78
2019-02-21T01:51:17.294Z,18.80
2019-02-21T01:52:20.814Z,18.78
2019-02-21T01:53:24.310Z,18.78
2019-02-21T01:54:27.850Z,18.77
2019-02-21T01:55:31.428Z,18.76
2019-02-21T01:56:34.929Z,18.77
2019-02-21T01:57:38.435Z,18.75
2019-02-21T01:58:41.934Z,18.76
2019-02-21T01:59:45.466Z,18.76
2019-02-21T02:00:49.023Z,18.77
2019-02-21T02:01:52.528Z,18.76
2019-02-21T02:02:56.035Z,18.76
2019-02-21T02:03:59.530Z,18.76
2019-02-21T02:05:03.043Z,18.76
2019-02-21T02:06:06.530Z,18.76
2019-02-21T02:07:10.107Z,18.76
2019-02-21T02:08:13.664Z,18.75
2019-02-21T02:09:17.553Z,18.76
2019-02-21T02:10:21.159Z,18.76
2019-02-21T02:11:24.686Z,18.76
2019-02-21T02:12:28.162Z,18.76
2019-02-21T02:13:31.753Z,18.75
2019-02-21T02:14:35.332Z,18.76
2019-02-21T02:15:38.835Z,18.75
2019-02-21T02:16:42.420Z,18.77
2019-02-21T02:17:45.967Z,18.75
2019-02-21T02:18:49.526Z,18.76
2019-02-21T02:19:53.067Z,18.76
2019-02-21T02:20:56.656Z,18.75
2019-02-21T02:22:00.362Z,18.74
2019-02-21T02:23:03.922Z,18.75
2019-02-21T02:24:07.555Z,18.74
2019-02-21T02:25:11.253Z,18.74
2019-02-21T02:26:14.888Z,18.74
2019-02-21T02:27:18.470Z,18.74
2019-02-21T02:28:22.044Z,18.75
2019-02-21T02:29:25.519Z,18.74
2019-02-21T02:30:29.100Z,18.75
2019-02-21T02:31:32.683Z,18.74
2019-02-21T02:32:36.292Z,18.74
2019-02-21T02:33:40.165Z,18.74
2019-02-21T02:34:43.647Z,18.74
2019-02-21T02:35:47.225Z,18.74
2019-02-21T02:36:50.750Z,18.74
2019-02-21T02:37:54.515Z,18.73
2019-02-21T02:38:58.090Z,18.72
2019-02-21T02:40:01.605Z,18.72
2019-02-21T02:41:05.140Z,18.71
2019-02-21T02:42:08.730Z,18.70
2019-02-21T02:43:12.279Z,18.70
2019-02-21T02:44:15.863Z,18.69
2019-02-21T02:45:19.442Z,18.68
2019-02-21T02:46:23.013Z,18.66
2019-02-21T02:47:26.554Z,18.66
2019-02-21T02:48:30.104Z,18.65
2019-02-21T02:49:33.669Z,18.64
2019-02-21T02:50:37.179Z,18.64
2019-02-21T02:51:40.693Z,18.62
2019-02-21T02:52:44.203Z,18.61
2019-02-21T02:53:47.716Z,18.61
2019-02-21T02:54:51.209Z,18.61
2019-02-21T02:55:54.730Z,18.61
2019-02-21T02:56:58.289Z,18.59
2019-02-21T02:58:01.790Z,18.59
2019-02-21T02:59:05.437Z,18.58
2019-02-21T03:00:11.973Z,18.57
2019-02-21T03:01:15.482Z,18.57
2019-02-21T03:02:19.029Z,18.57
2019-02-21T03:03:22.701Z,18.56
2019-02-21T03:04:26.418Z,18.56
2019-02-21T03:05:29.896Z,18.54
2019-02-21T03:06:33.423Z,18.55
2019-02-21T03:07:36.930Z,18.53
2019-02-21T03:08:40.433Z,18.54
2019-02-21T03:09:43.930Z,18.54
2019-02-21T03:10:47.431Z,18.55
2019-02-21T03:11:52.078Z,18.54
2019-02-21T03:12:55.733Z,18.54
2019-02-21T03:13:59.262Z,18.56
2019-02-21T03:15:02.876Z,18.56
2019-02-21T03:16:06.452Z,18.56
2019-02-21T03:17:10.010Z,18.57
2019-02-21T03:18:13.520Z,18.57
2019-02-21T03:19:17.090Z,18.58
2019-02-21T03:20:20.600Z,18.56
2019-02-21T03:21:24.098Z,18.57
2019-02-21T03:22:27.626Z,18.57
2019-02-21T03:23:31.113Z,18.57
2019-02-21T03:24:34.618Z,18.58
2019-02-21T03:25:38.117Z,18.57
2019-02-21T03:26:41.687Z,18.57
2019-02-21T03:27:45.236Z,18.56
2019-02-21T03:28:48.796Z,18.56
2019-02-21T03:29:52.364Z,18.57
2019-02-21T03:30:55.895Z,18.56
2019-02-21T03:31:59.382Z,18.57
2019-02-21T03:33:02.958Z,18.56
2019-02-21T03:34:06.530Z,18.56
2019-02-21T03:35:10.462Z,18.56
2019-02-21T03:36:13.951Z,18.56
2019-02-21T03:37:17.462Z,18.56
2019-02-21T03:38:21.038Z,18.57
2019-02-21T03:39:24.601Z,18.57
2019-02-21T03:40:28.134Z,18.58
2019-02-21T03:41:31.887Z,18.58
2019-02-21T03:42:35.394Z,18.57
2019-02-21T03:43:38.921Z,18.57
2019-02-21T03:44:42.492Z,18.56
2019-02-21T03:45:46.026Z,18.58
2019-02-21T03:46:49.521Z,18.58
2019-02-21T03:47:53.015Z,18.57
2019-02-21T03:48:56.533Z,18.57
2019-02-21T03:50:00.219Z,18.57
2019-02-21T03:51:03.979Z,18.55
2019-02-21T03:52:07.484Z,18.54
2019-02-21T03:53:10.976Z,18.53
2019-02-21T03:54:14.488Z,18.53
2019-02-21T03:55:18.051Z,18.52
2019-02-21T03:56:21.620Z,18.52
2019-02-21T03:57:25.181Z,18.51
2019-02-21T03:58:28.829Z,18.50
2019-02-21T03:59:32.480Z,18.50
2019-02-21T04:00:36.116Z,18.51
2019-02-21T04:01:39.684Z,18.51
2019-02-21T04:02:43.249Z,18.52
2019-02-21T04:03:46.905Z,18.55
2019-02-21T04:04:50.462Z,18.56
2019-02-21T04:05:54.105Z,18.58
2019-02-21T04:06:57.740Z,18.60
2019-02-21T04:08:01.321Z,18.65
2019-02-21T04:09:08.253Z,18.66
2019-02-21T04:10:11.994Z,18.70
2019-02-21T04:11:15.513Z,18.77
2019-02-21T04:12:19.086Z,18.82
2019-02-21T04:13:22.606Z,18.84
2019-02-21T04:14:26.117Z,18.94
2019-02-21T04:15:30.010Z,18.98
2019-02-21T04:16:33.514Z,19.06
2019-02-21T04:17:37.096Z,19.12
2019-02-21T04:18:40.700Z,19.19
2019-02-21T04:19:44.253Z,19.27
2019-02-21T04:20:47.835Z,19.34
2019-02-21T04:21:51.339Z,19.40
2019-02-21T04:22:54.852Z,19.45
2019-02-21T04:23:58.433Z,19.55
2019-02-21T04:25:02.002Z,19.61
2019-02-21T04:26:05.570Z,19.67
2019-02-21T04:27:09.138Z,19.74
2019-02-21T04:28:12.731Z,19.80
2019-02-21T04:29:16.287Z,19.86
2019-02-21T04:30:19.836Z,19.88
2019-02-21T04:31:23.478Z,19.95
2019-02-21T04:32:26.967Z,20.02
2019-02-21T04:33:30.560Z,20.03
2019-02-21T04:34:34.059Z,20.04
2019-02-21T04:35:37.558Z,20.06
2019-02-21T04:36:41.143Z,20.11
2019-02-21T04:37:44.650Z,20.16
2019-02-21T04:38:48.164Z,20.18
2019-02-21T04:39:51.691Z,20.18
2019-02-21T04:40:55.176Z,20.18
2019-02-21T04:41:58.721Z,20.21
2019-02-21T04:43:02.225Z,20.24
2019-02-21T04:44:05.797Z,20.23
2019-02-21T04:45:09.533Z,20.27
2019-02-21T04:46:13.037Z,20.27
2019-02-21T04:47:16.603Z,20.29
2019-02-21T04:48:20.139Z,20.33
2019-02-21T04:49:23.732Z,20.34
2019-02-21T04:50:27.234Z,20.31
2019-02-21T04:51:30.742Z,20.35
2019-02-21T04:52:34.258Z,20.35
2019-02-21T04:53:37.761Z,20.36
2019-02-21T04:54:41.275Z,20.36
2019-02-21T04:55:44.840Z,20.36
2019-02-21T04:56:48.343Z,20.39
2019-02-21T04:57:51.876Z,20.39
2019-02-21T04:58:55.463Z,20.39
2019-02-21T04:59:59.008Z,20.39
2019-02-21T05:01:02.641Z,20.41
2019-02-21T05:02:06.163Z,20.40
2019-02-21T05:03:09.741Z,20.40
2019-02-21T05:04:13.321Z,20.39
2019-02-21T05:05:16.869Z,20.41
2019-02-21T05:06:20.398Z,20.39
2019-02-21T05:07:23.966Z,20.43
2019-02-21T05:08:27.468Z,20.43
2019-02-21T05:09:31.027Z,20.41
2019-02-21T05:10:34.602Z,20.43
2019-02-21T05:11:38.086Z,20.41
2019-02-21T05:12:41.750Z,20.43
2019-02-21T05:13:45.255Z,20.40
2019-02-21T05:15:51.316Z,20.39
2019-02-21T05:16:54.828Z,20.37
2019-02-21T05:17:58.300Z,20.34
2019-02-21T05:19:01.899Z,20.32
2019-02-21T05:20:06.331Z,20.30
2019-02-21T05:21:09.835Z,20.27
2019-02-21T05:22:13.430Z,20.24
2019-02-21T05:23:16.914Z,20.21
2019-02-21T05:24:20.476Z,20.19
2019-02-21T05:25:23.994Z,20.16
2019-02-21T05:26:29.216Z,20.15
2019-02-21T05:27:33.918Z,20.16
2019-02-21T05:28:37.425Z,20.17
2019-02-21T05:29:40.977Z,20.20
2019-02-21T05:30:44.580Z,20.20
2019-02-21T05:32:01.577Z,20.22
2019-02-21T05:33:09.433Z,20.27
2019-02-21T05:34:14.558Z,20.30
2019-02-21T05:35:22.443Z,20.31
2019-02-21T05:36:27.607Z,20.33
2019-02-21T05:37:32.738Z,20.30
2019-02-21T05:38:46.942Z,20.33
2019-02-21T05:39:58.016Z,20.29
2019-02-21T05:41:04.391Z,20.30
2019-02-21T05:42:24.760Z,20.28
2019-02-21T05:43:32.389Z,20.27
2019-02-21T05:44:37.566Z,20.24
2019-02-21T05:45:54.290Z,20.20
2019-02-21T05:47:15.606Z,20.19
2019-02-21T05:48:32.785Z,20.21
2019-02-21T05:49:55.921Z,20.22
2019-02-21T05:51:03.719Z,20.22
2019-02-21T05:52:14.719Z,20.23
2019-02-21T05:53:28.285Z,20.27
2019-02-21T05:54:33.424Z,20.25
2019-02-21T05:55:38.560Z,20.28
2019-02-21T05:56:46.392Z,20.29
2019-02-21T05:58:03.178Z,20.27
2019-02-21T05:59:24.247Z,20.27
2019-02-21T06:00:36.922Z,20.25
2019-02-21T06:01:54.425Z,20.27
2019-02-21T06:03:15.620Z,20.25
2019-02-21T06:04:23.368Z,20.23
2019-02-21T06:05:28.502Z,20.21
2019-02-21T06:06:45.156Z,20.19
2019-02-21T06:07:53.009Z,20.15
2019-02-21T06:09:03.822Z,20.14
2019-02-21T06:10:11.961Z,20.10
2019-02-21T06:11:18.232Z,20.05
2019-02-21T06:12:38.481Z,20.03
2019-02-21T06:13:59.447Z,19.99
2019-02-21T06:15:20.581Z,19.97
2019-02-21T06:16:25.732Z,19.94
2019-02-21T06:17:34.336Z,19.91
2019-02-21T06:18:39.585Z,19.87
2019-02-21T06:19:48.152Z,19.84
2019-02-21T06:20:57.647Z,19.81
2019-02-21T06:22:10.511Z,19.78
2019-02-21T06:23:09.573Z,19.73
2019-02-21T06:24:14.698Z,19.68
2019-02-21T06:25:22.483Z,19.63
2019-02-21T06:26:42.558Z,19.58
2019-02-21T06:27:47.694Z,19.53
2019-02-21T06:28:53.681Z,19.49
2019-02-21T06:30:02.078Z,19.44
2019-02-21T06:31:07.257Z,19.38
2019-02-21T06:32:14.237Z,19.33
2019-02-21T06:33:16.047Z,19.29
2019-02-21T06:34:19.541Z,19.25
2019-02-21T06:35:23.121Z,19.21
2019-02-21T06:36:26.648Z,19.17
2019-02-21T06:37:30.155Z,19.13
2019-02-21T06:38:33.929Z,19.09
2019-02-21T06:39:37.490Z,19.05
2019-02-21T06:40:40.981Z,19.04
2019-02-21T06:41:44.567Z,19.02
2019-02-21T06:42:48.058Z,19.02
2019-02-21T06:43:52.715Z,19.01
2019-02-21T06:44:56.519Z,18.99
2019-02-21T06:46:00.045Z,19.00
2019-02-21T06:47:03.617Z,19.00
2019-02-21T06:48:07.132Z,18.99
2019-02-21T06:49:10.715Z,18.98
2019-02-21T06:50:14.613Z,18.97
2019-02-21T06:51:18.241Z,18.98
2019-02-21T06:52:21.749Z,18.97
2019-02-21T06:53:25.234Z,18.97
2019-02-21T06:54:28.760Z,18.96
2019-02-21T06:55:32.320Z,18.95
2019-02-21T06:56:35.818Z,18.95
2019-02-21T06:57:39.365Z,18.94
2019-02-21T06:58:42.848Z,18.93
2019-02-21T06:59:46.372Z,18.93
2019-02-21T07:00:49.878Z,18.91
2019-02-21T07:01:53.358Z,18.90
2019-02-21T07:02:56.964Z,18.90
2019-02-21T07:04:01.956Z,18.90
2019-02-21T07:05:05.714Z,18.88
2019-02-21T07:06:09.310Z,18.88
2019-02-21T07:07:12.788Z,18.86
2019-02-21T07:08:16.369Z,18.85
2019-02-21T07:09:19.918Z,18.85
2019-02-21T07:10:23.461Z,18.83
2019-02-21T07:11:26.990Z,18.83
2019-02-21T07:12:30.469Z,18.82
2019-02-21T07:13:34.078Z,18.78
2019-02-21T07:14:37.613Z,18.80
2019-02-21T07:15:41.109Z,18.79
2019-02-21T07:16:44.626Z,18.78
2019-02-21T07:17:49.566Z,18.77
2019-02-21T07:18:53.314Z,18.75
2019-02-21T07:19:56.830Z,18.75
2019-02-21T07:21:00.315Z,18.73
2019-02-21T07:22:06.182Z,18.72
2019-02-21T07:23:11.249Z,18.70
2019-02-21T07:24:14.369Z,18.71
2019-02-21T07:25:32.531Z,18.71
2019-02-21T07:26:36.122Z,18.69
2019-02-21T07:27:39.611Z,18.68
2019-02-21T07:28:43.178Z,18.66
2019-02-21T07:29:46.694Z,18.66
2019-02-21T07:30:50.863Z,18.65
2019-02-21T07:31:54.375Z,18.65
2019-02-21T07:32:57.864Z,18.64
2019-02-21T07:34:01.846Z,18.63
2019-02-21T07:35:06.125Z,18.62
2019-02-21T07:36:11.022Z,18.60
2019-02-21T07:37:18.538Z,18.60
2019-02-21T07:38:19.823Z,18.59
2019-02-21T07:39:23.413Z,18.59
2019-02-21T07:40:26.970Z,18.57
2019-02-21T07:41:30.527Z,18.57
2019-02-21T07:42:34.101Z,18.56
2019-02-21T07:43:37.581Z,18.56
2019-02-21T07:44:41.182Z,18.55
2019-02-21T07:45:44.727Z,18.54
2019-02-21T07:46:48.231Z,18.54
2019-02-21T07:47:51.806Z,18.52
2019-02-21T07:48:55.328Z,18.51
2019-02-21T07:49:58.847Z,18.50
2019-02-21T07:51:02.425Z,18.48
2019-02-21T07:52:05.913Z,18.50
2019-02-21T07:53:09.388Z,18.50
2019-02-21T07:54:12.896Z,18.48
2019-02-21T07:55:16.420Z,18.47
2019-02-21T07:56:19.909Z,18.47
2019-02-21T07:57:23.425Z,18.46
2019-02-21T07:58:26.968Z,18.45
2019-02-21T07:59:30.492Z,18.44
2019-02-21T08:00:34.080Z,18.43
2019-02-21T08:01:37.670Z,18.42
2019-02-21T08:02:41.220Z,18.43
2019-02-21T08:03:48.098Z,18.42
2019-02-21T08:04:49.943Z,18.40
2019-02-21T08:05:53.469Z,18.38
2019-02-21T08:06:56.958Z,18.40
2019-02-21T08:08:00.461Z,18.38
2019-02-21T08:09:05.882Z,18.39
2019-02-21T08:10:11.486Z,18.38
2019-02-21T08:11:15.074Z,18.38
2019-02-21T08:12:18.636Z,18.37
2019-02-21T08:13:22.304Z,18.36
2019-02-21T08:14:25.831Z,18.36
2019-02-21T08:15:29.304Z,18.35
2019-02-21T08:16:32.839Z,18.33
2019-02-21T08:17:36.325Z,18.31
2019-02-21T08:18:39.822Z,18.33
2019-02-21T08:19:43.346Z,18.33
2019-02-21T08:20:46.890Z,18.32
2019-02-21T08:21:50.577Z,18.31
2019-02-21T08:22:54.073Z,18.31
2019-02-21T08:23:59.243Z,18.31
2019-02-21T08:25:02.819Z,18.29
2019-02-21T08:26:06.444Z,18.28
2019-02-21T08:27:10.033Z,18.28
2019-02-21T08:28:13.612Z,18.28
2019-02-21T08:29:17.108Z,18.26
2019-02-21T08:30:20.734Z,18.26
2019-02-21T08:31:24.219Z,18.26
2019-02-21T08:32:29.371Z,18.26
2019-02-21T08:33:34.484Z,18.26
2019-02-21T08:34:42.109Z,18.25
2019-02-21T08:35:45.691Z,18.26
2019-02-21T08:36:49.182Z,18.25
2019-02-21T08:37:52.697Z,18.25
2019-02-21T08:38:56.197Z,18.25
2019-02-21T08:39:59.702Z,18.25
2019-02-21T08:41:03.186Z,18.26
2019-02-21T08:42:06.688Z,18.24
2019-02-21T08:43:10.220Z,18.24
2019-02-21T08:44:13.710Z,18.25
2019-02-21T08:45:17.911Z,18.24
2019-02-21T08:46:21.476Z,18.24
2019-02-21T08:47:24.979Z,18.23
2019-02-21T08:48:28.563Z,18.23
2019-02-21T08:49:32.044Z,18.22
2019-02-21T08:50:35.606Z,18.22
2019-02-21T08:51:39.238Z,18.21
2019-02-21T08:52:42.734Z,18.21
2019-02-21T08:53:46.263Z,18.21
2019-02-21T08:54:59.807Z,18.19
2019-02-21T08:55:56.060Z,18.20
2019-02-21T08:56:59.621Z,18.19
2019-02-21T08:58:03.122Z,18.18
2019-02-21T08:59:06.717Z,18.18
2019-02-21T09:00:13.327Z,18.15
2019-02-21T09:01:16.846Z,18.17
2019-02-21T09:02:20.424Z,18.16
2019-02-21T09:03:23.923Z,18.13
2019-02-21T09:04:28.046Z,18.16
2019-02-21T09:05:31.673Z,18.14
2019-02-21T09:06:35.165Z,18.14
2019-02-21T09:07:38.732Z,18.14
2019-02-21T09:08:42.238Z,18.13
2019-02-21T09:09:45.820Z,18.11
2019-02-21T09:10:49.449Z,18.12
2019-02-21T09:11:53.868Z,18.11
2019-02-21T09:12:57.653Z,18.11
2019-02-21T09:14:01.142Z,18.10
2019-02-21T09:15:06.815Z,18.09
2019-02-21T09:16:10.389Z,18.09
2019-02-21T09:17:13.981Z,18.07
2019-02-21T09:18:17.622Z,18.07
2019-02-21T09:19:21.174Z,18.05
2019-02-21T09:20:24.843Z,18.08
2019-02-21T09:21:28.340Z,18.06
2019-02-21T09:22:31.903Z,18.06
2019-02-21T09:23:35.404Z,18.04
2019-02-21T09:24:42.288Z,18.04
2019-02-21T09:25:44.130Z,18.02
2019-02-21T09:26:47.633Z,18.04
2019-02-21T09:27:51.117Z,18.02
2019-02-21T09:28:54.650Z,18.02
2019-02-21T09:29:58.261Z,18.01
2019-02-21T09:31:01.750Z,17.98
2019-02-21T09:32:06.952Z,18.00
2019-02-21T09:33:17.475Z,18.00
2019-02-21T09:34:21.205Z,18.00
2019-02-21T09:35:21.126Z,17.97
2019-02-21T09:36:24.627Z,17.98
2019-02-21T09:37:28.112Z,17.98
2019-02-21T09:38:31.675Z,17.97
2019-02-21T09:39:35.192Z,17.96
2019-02-21T09:40:38.725Z,17.96
2019-02-21T09:41:42.205Z,17.95
2019-02-21T09:42:45.698Z,17.95
2019-02-21T09:43:51.125Z,17.95
2019-02-21T09:44:54.711Z,17.94
2019-02-21T09:45:58.259Z,17.95
2019-02-21T09:47:01.755Z,17.93
2019-02-21T09:48:05.260Z,17.92
2019-02-21T09:49:08.741Z,17.92
2019-02-21T09:50:12.303Z,17.92
2019-02-21T09:51:18.183Z,17.91
2019-02-21T09:52:21.041Z,17.91
2019-02-21T09:53:24.519Z,17.89
2019-02-21T09:54:28.023Z,17.91
2019-02-21T09:55:31.520Z,17.88
2019-02-21T09:56:35.047Z,17.90
2019-02-21T09:57:38.676Z,17.88
2019-02-21T09:58:42.168Z,17.90
2019-02-21T09:59:45.738Z,17.90
2019-02-21T10:00:49.368Z,17.90
2019-02-21T10:01:52.896Z,17.88
2019-02-21T10:02:56.828Z,17.87
2019-02-21T10:04:00.419Z,17.88
2019-02-21T10:05:05.642Z,17.86
2019-02-21T10:06:09.401Z,17.88
2019-02-21T10:07:12.915Z,17.86
2019-02-21T10:08:16.489Z,17.86
2019-02-21T10:09:19.981Z,17.87
2019-02-21T10:10:23.549Z,17.86
2019-02-21T10:11:27.144Z,17.86
2019-02-21T10:12:30.639Z,17.85
2019-02-21T10:13:34.118Z,17.85
2019-02-21T10:14:37.705Z,17.84
2019-02-21T10:15:41.760Z,17.85
2019-02-21T10:16:45.348Z,17.84
2019-02-21T10:17:50.842Z,17.85
2019-02-21T10:18:54.083Z,17.85
2019-02-21T10:19:57.731Z,17.85
2019-02-21T10:21:01.346Z,17.85
2019-02-21T10:22:04.990Z,17.84
2019-02-21T10:23:08.513Z,17.85
2019-02-21T10:24:12.012Z,17.85
2019-02-21T10:25:24.445Z,17.86
2019-02-21T10:26:28.089Z,17.85
2019-02-21T10:27:31.562Z,17.84
2019-02-21T10:28:35.092Z,17.85
2019-02-21T10:29:38.584Z,17.84
2019-02-21T10:30:42.200Z,17.86
2019-02-21T10:31:45.710Z,17.86
2019-02-21T10:32:49.261Z,17.85
2019-02-21T10:33:52.795Z,17.85
2019-02-21T10:34:56.297Z,17.86
2019-02-21T10:36:00.547Z,17.85
2019-02-21T10:37:04.235Z,17.83
2019-02-21T10:38:07.735Z,17.84
2019-02-21T10:39:11.671Z,17.84
2019-02-21T10:40:18.206Z,17.83
2019-02-21T10:41:21.684Z,17.85
2019-02-21T10:42:25.264Z,17.82
2019-02-21T10:43:28.774Z,17.82
2019-02-21T10:44:32.304Z,17.82
2019-02-21T10:45:47.137Z,17.81
2019-02-21T10:46:40.999Z,17.81
2019-02-21T10:47:44.617Z,17.82
2019-02-21T10:48:48.173Z,17.81
2019-02-21T10:49:51.647Z,17.82
2019-02-21T10:50:55.216Z,17.81
2019-02-21T10:51:58.722Z,17.81
2019-02-21T10:53:02.275Z,17.79
2019-02-21T10:54:05.869Z,17.80
2019-02-21T10:55:09.593Z,17.77
2019-02-21T10:56:13.087Z,17.78
2019-02-21T10:57:16.587Z,17.77
2019-02-21T10:58:20.061Z,17.76
2019-02-21T10:59:23.653Z,17.75
2019-02-21T11:00:29.379Z,17.75
2019-02-21T11:01:32.920Z,17.74
2019-02-21T11:02:36.557Z,17.73
2019-02-21T11:03:40.146Z,17.73
2019-02-21T11:04:54.112Z,17.74
2019-02-21T11:05:48.996Z,17.73
2019-02-21T11:06:52.716Z,17.73
2019-02-21T11:07:56.304Z,17.73
2019-02-21T11:08:59.808Z,17.73
2019-02-21T11:10:03.776Z,17.74
2019-02-21T11:11:07.430Z,17.75
2019-02-21T11:12:10.911Z,17.75
2019-02-21T11:13:14.403Z,17.75
2019-02-21T11:14:17.907Z,17.76
2019-02-21T11:15:23.558Z,17.77
2019-02-21T11:16:27.132Z,17.77
2019-02-21T11:17:30.657Z,17.77
2019-02-21T11:18:34.184Z,17.77
2019-02-21T11:19:37.709Z,17.77
2019-02-21T11:20:41.335Z,17.77
2019-02-21T11:21:44.861Z,17.77
2019-02-21T11:22:48.656Z,17.77
2019-02-21T11:23:52.285Z,17.76
2019-02-21T11:24:55.926Z,17.79
2019-02-21T11:25:59.513Z,17.78
2019-02-21T11:27:03.004Z,17.78
2019-02-21T11:28:06.511Z,17.79
2019-02-21T11:29:10.021Z,17.81
2019-02-21T11:30:16.088Z,17.81
2019-02-21T11:31:19.693Z,17.80
2019-02-21T11:32:23.189Z,17.79
2019-02-21T11:33:26.756Z,17.80
2019-02-21T11:34:30.266Z,17.78
2019-02-21T11:35:33.850Z,17.79
2019-02-21T11:36:37.348Z,17.79
2019-02-21T11:37:45.621Z,17.77
2019-02-21T11:38:46.079Z,17.77
2019-02-21T11:39:49.579Z,17.77
2019-02-21T11:40:53.164Z,17.76
2019-02-21T11:41:56.758Z,17.76
2019-02-21T11:43:02.447Z,17.76
2019-02-21T11:44:05.712Z,17.75
2019-02-21T11:45:15.107Z,17.75
2019-02-21T11:46:18.632Z,17.75
2019-02-21T11:47:22.189Z,17.75
2019-02-21T11:48:25.835Z,17.74
2019-02-21T11:49:29.386Z,17.75
2019-02-21T11:50:33.031Z,17.74
2019-02-21T11:51:36.547Z,17.74
2019-02-21T11:52:40.045Z,17.74
2019-02-21T11:53:43.702Z,17.74
2019-02-21T11:54:47.253Z,17.75
2019-02-21T11:55:50.753Z,17.74
2019-02-21T11:56:54.346Z,17.74
2019-02-21T11:57:57.918Z,17.73
2019-02-21T11:59:01.416Z,17.73
2019-02-21T12:00:10.977Z,17.71
2019-02-21T12:01:16.072Z,17.73
2019-02-21T12:02:19.685Z,17.73
2019-02-21T12:03:23.167Z,17.73
2019-02-21T12:04:26.744Z,17.72
2019-02-21T12:05:31.757Z,17.74
2019-02-21T12:06:35.716Z,17.73
2019-02-21T12:07:39.467Z,17.73
2019-02-21T12:08:42.969Z,17.74
2019-02-21T12:09:46.463Z,17.73
2019-02-21T12:10:50.951Z,17.73
2019-02-21T12:11:54.670Z,17.72
2019-02-21T12:12:58.202Z,17.72
2019-02-21T12:14:01.685Z,17.71
2019-02-21T12:15:07.742Z,17.70
2019-02-21T12:16:11.389Z,17.69
2019-02-21T12:17:14.950Z,17.69
2019-02-21T12:18:18.483Z,17.66
2019-02-21T12:19:22.128Z,17.68
2019-02-21T12:20:25.696Z,17.66
2019-02-21T12:21:29.257Z,17.67
2019-02-21T12:22:32.835Z,17.65
2019-02-21T12:23:36.352Z,17.64
2019-02-21T12:24:39.843Z,17.63
2019-02-21T12:25:43.345Z,17.65
2019-02-21T12:26:46.915Z,17.63
2019-02-21T12:27:50.502Z,17.63
2019-02-21T12:28:54.008Z,17.63
2019-02-21T12:29:57.566Z,17.62
2019-02-21T12:31:01.073Z,17.61
2019-02-21T12:32:04.692Z,17.61
2019-02-21T12:33:08.247Z,17.62
2019-02-21T12:34:11.848Z,17.59
2019-02-21T12:35:15.573Z,17.59
2019-02-21T12:36:19.156Z,17.60
2019-02-21T12:37:22.714Z,17.59
2019-02-21T12:38:26.199Z,17.58
2019-02-21T12:39:29.788Z,17.57
2019-02-21T12:40:33.405Z,17.57
2019-02-21T12:41:36.912Z,17.57
2019-02-21T12:42:40.429Z,17.57
2019-02-21T12:43:43.972Z,17.57
2019-02-21T12:44:47.946Z,17.57
2019-02-21T12:45:52.979Z,17.55
2019-02-21T12:46:56.484Z,17.56
2019-02-21T12:48:00.014Z,17.55
2019-02-21T12:49:03.549Z,17.54
2019-02-21T12:50:09.499Z,17.56
2019-02-21T12:51:14.648Z,17.56
2019-02-21T12:52:18.129Z,17.54
2019-02-21T12:53:21.654Z,17.56
2019-02-21T12:54:25.144Z,17.55
2019-02-21T12:55:31.710Z,17.55
2019-02-21T12:56:33.891Z,17.55
2019-02-21T12:57:37.526Z,17.55
2019-02-21T12:58:41.026Z,17.55
2019-02-21T12:59:44.567Z,17.54
2019-02-21T13:00:48.055Z,17.55
2019-02-21T13:01:51.563Z,17.55
2019-02-21T13:02:55.049Z,17.56
2019-02-21T13:03:58.517Z,17.55
2019-02-21T13:05:02.020Z,17.57
2019-02-21T13:06:05.531Z,17.55
2019-02-21T13:07:09.096Z,17.56
2019-02-21T13:08:12.614Z,17.55
2019-02-21T13:09:16.090Z,17.55
2019-02-21T13:10:21.626Z,17.55
2019-02-21T13:11:25.153Z,17.55
2019-02-21T13:12:28.632Z,17.56
2019-02-21T13:13:32.142Z,17.56
2019-02-21T13:14:35.621Z,17.57
2019-02-21T13:15:39.199Z,17.58
2019-02-21T13:16:42.875Z,17.58
2019-02-21T13:17:46.491Z,17.59
2019-02-21T13:18:50.010Z,17.59
2019-02-21T13:19:53.484Z,17.59
2019-02-21T13:20:56.956Z,17.60
2019-02-21T13:22:00.502Z,17.60
2019-02-21T13:23:04.009Z,17.60
2019-02-21T13:24:07.526Z,17.58
2019-02-21T13:25:13.087Z,17.58
2019-02-21T13:26:16.562Z,17.58
2019-02-21T13:27:20.161Z,17.58
2019-02-21T13:28:23.629Z,17.57
2019-02-21T13:29:27.125Z,17.56
2019-02-21T13:30:30.713Z,17.56
2019-02-21T13:31:34.221Z,17.55
2019-02-21T13:32:37.766Z,17.56
2019-02-21T13:33:41.285Z,17.54
2019-02-21T13:34:44.841Z,17.54
2019-02-21T13:35:52.568Z,17.54
2019-02-21T13:36:53.714Z,17.54
2019-02-21T13:37:57.509Z,17.53
2019-02-21T13:39:01.096Z,17.53
2019-02-21T13:40:06.839Z,17.52
2019-02-21T13:41:10.622Z,17.52
2019-02-21T13:42:14.093Z,17.51
2019-02-21T13:43:17.695Z,17.50
2019-02-21T13:44:21.182Z,17.49
2019-02-21T13:45:24.692Z,17.48
2019-02-21T13:46:36.877Z,17.49
2019-02-21T13:47:33.422Z,17.49
2019-02-21T13:48:37.015Z,17.48